sensor_id;sensor_type;location;lat;lon;timestamp;P1;durP1;ratioP1;P2;durP2;ratioP2
53835;SDS011;39737;43.334;21.936;2023-02-22T00:45:27;17.35;;;8.23;;
53835;SDS011;39737;43.334;21.936;2023-02-22T00:48:19;2.55;;;2.35;;
53835;SDS011;39737;43.334;21.936;2023-02-22T00:51:31;1.27;;;1.17;;
53835;SDS011;39737;43.334;21.936;2023-02-22T00:54:42;1.45;;;1.38;;
53835;SDS011;39737;43.334;21.936;2023-02-22T00:57:54;4.13;;;2.40;;
53835;SDS011;39737;43.334;21.936;2023-02-22T01:01:28;25.30;;;9.82;;
53835;SDS011;39737;43.334;21.936;2023-02-22T01:04:46;9.70;;;2.63;;
53835;SDS011;39737;43.334;21.936;2023-02-22T01:07:40;16.17;;;8.43;;
53835;SDS011;39737;43.334;21.936;2023-02-22T01:15:18;2.15;;;2.00;;
53835;SDS011;39737;43.334;21.936;2023-02-22T01:18:31;4.68;;;2.25;;
53835;SDS011;39737;43.334;21.936;2023-02-22T01:21:39;5.40;;;2.58;;
53835;SDS011;39737;43.334;21.936;2023-02-22T01:29:41;3.97;;;2.63;;
53835;SDS011;39737;43.334;21.936;2023-02-22T01:32:34;2.13;;;1.58;;
53835;SDS011;39737;43.334;21.936;2023-02-22T01:35:29;17.10;;;9.23;;
53835;SDS011;39737;43.334;21.936;2023-02-22T01:43:16;2.10;;;1.23;;
53835;SDS011;39737;43.334;21.936;2023-02-22T01:46:24;7.10;;;3.50;;
53835;SDS011;39737;43.334;21.936;2023-02-22T01:49:22;1.55;;;1.45;;
53835;SDS011;39737;43.334;21.936;2023-02-22T01:52:16;1.40;;;1.35;;
53835;SDS011;39737;43.334;21.936;2023-02-22T01:55:41;5.28;;;3.92;;
53835;SDS011;39737;43.334;21.936;2023-02-22T01:58:33;16.15;;;7.88;;
53835;SDS011;39737;43.334;21.936;2023-02-22T02:02:15;1.10;;;0.65;;
53835;SDS011;39737;43.334;21.936;2023-02-22T02:05:14;2.03;;;1.55;;
53835;SDS011;39737;43.334;21.936;2023-02-22T02:08:10;1.55;;;1.13;;
53835;SDS011;39737;43.334;21.936;2023-02-22T02:11:10;1.45;;;1.35;;
53835;SDS011;39737;43.334;21.936;2023-02-22T02:14:08;0.80;;;0.80;;
53835;SDS011;39737;43.334;21.936;2023-02-22T02:17:05;2.55;;;2.35;;
53835;SDS011;39737;43.334;21.936;2023-02-22T02:20:41;27.40;;;11.20;;
53835;SDS011;39737;43.334;21.936;2023-02-22T02:33:53;2.15;;;1.75;;
53835;SDS011;39737;43.334;21.936;2023-02-22T02:37:21;3.63;;;1.17;;
53835;SDS011;39737;43.334;21.936;2023-02-22T02:43:54;3.50;;;1.20;;
53835;SDS011;39737;43.334;21.936;2023-02-22T02:47:05;1.30;;;1.10;;
53835;SDS011;39737;43.334;21.936;2023-02-22T02:56:28;0.98;;;0.98;;
53835;SDS011;39737;43.334;21.936;2023-02-22T03:18:36;4.50;;;2.22;;
53835;SDS011;39737;43.334;21.936;2023-02-22T03:21:56;0.73;;;0.73;;
53835;SDS011;39737;43.334;21.936;2023-02-22T03:28:07;2.05;;;1.58;;
53835;SDS011;39737;43.334;21.936;2023-02-22T03:31:08;0.98;;;0.98;;
53835;SDS011;39737;43.334;21.936;2023-02-22T03:37:57;3.08;;;2.28;;
53835;SDS011;39737;43.334;21.936;2023-02-22T03:41:07;6.85;;;4.78;;
53835;SDS011;39737;43.334;21.936;2023-02-22T03:44:04;1.42;;;1.33;;
53835;SDS011;39737;43.334;21.936;2023-02-22T03:46:59;17.48;;;4.95;;
53835;SDS011;39737;43.334;21.936;2023-02-22T03:49:59;1.55;;;1.45;;
53835;SDS011;39737;43.334;21.936;2023-02-22T03:53:18;2.33;;;2.15;;
53835;SDS011;39737;43.334;21.936;2023-02-22T03:56:53;20.25;;;9.57;;
53835;SDS011;39737;43.334;21.936;2023-02-22T04:00:03;7.65;;;4.38;;
53835;SDS011;39737;43.334;21.936;2023-02-22T04:07:58;4.15;;;1.67;;
53835;SDS011;39737;43.334;21.936;2023-02-22T04:10:45;3.35;;;3.10;;
53835;SDS011;39737;43.334;21.936;2023-02-22T04:13:33;1.27;;;1.17;;
53835;SDS011;39737;43.334;21.936;2023-02-22T04:16:20;2.22;;;1.95;;
53835;SDS011;39737;43.334;21.936;2023-02-22T04:19:08;1.98;;;1.80;;
53835;SDS011;39737;43.334;21.936;2023-02-22T04:21:56;1.08;;;1.08;;
53835;SDS011;39737;43.334;21.936;2023-02-22T04:24:43;1.25;;;1.25;;
53835;SDS011;39737;43.334;21.936;2023-02-22T04:27:30;3.10;;;1.15;;
53835;SDS011;39737;43.334;21.936;2023-02-22T04:30:34;3.05;;;0.93;;
53835;SDS011;39737;43.334;21.936;2023-02-22T04:33:23;4.00;;;3.65;;
53835;SDS011;39737;43.334;21.936;2023-02-22T04:36:10;1.13;;;1.13;;
53835;SDS011;39737;43.334;21.936;2023-02-22T04:38:59;2.83;;;2.17;;
53835;SDS011;39737;43.334;21.936;2023-02-22T04:41:46;15.48;;;7.93;;
53835;SDS011;39737;43.334;21.936;2023-02-22T04:44:33;3.08;;;2.72;;
53835;SDS011;39737;43.334;21.936;2023-02-22T04:47:19;3.25;;;2.15;;
53835;SDS011;39737;43.334;21.936;2023-02-22T04:50:06;3.50;;;3.00;;
53835;SDS011;39737;43.334;21.936;2023-02-22T04:52:52;2.10;;;1.85;;
53835;SDS011;39737;43.334;21.936;2023-02-22T04:55:39;3.53;;;2.67;;
53835;SDS011;39737;43.334;21.936;2023-02-22T04:58:25;0.80;;;0.80;;
53835;SDS011;39737;43.334;21.936;2023-02-22T05:01:11;6.57;;;3.85;;
53835;SDS011;39737;43.334;21.936;2023-02-22T05:04:00;14.65;;;7.85;;
53835;SDS011;39737;43.334;21.936;2023-02-22T05:06:46;3.22;;;2.33;;
53835;SDS011;39737;43.334;21.936;2023-02-22T05:09:33;2.05;;;1.95;;
53835;SDS011;39737;43.334;21.936;2023-02-22T05:12:19;9.98;;;1.80;;
53835;SDS011;39737;43.334;21.936;2023-02-22T05:15:06;1.67;;;1.58;;
53835;SDS011;39737;43.334;21.936;2023-02-22T05:17:52;20.67;;;9.38;;
53835;SDS011;39737;43.334;21.936;2023-02-22T05:20:39;7.95;;;4.50;;
53835;SDS011;39737;43.334;21.936;2023-02-22T05:23:25;6.15;;;4.78;;
53835;SDS011;39737;43.334;21.936;2023-02-22T05:26:11;9.35;;;8.35;;
53835;SDS011;39737;43.334;21.936;2023-02-22T05:28:57;4.88;;;3.63;;
53835;SDS011;39737;43.334;21.936;2023-02-22T05:31:44;1.10;;;1.05;;
53835;SDS011;39737;43.334;21.936;2023-02-22T05:34:31;6.35;;;0.98;;
53835;SDS011;39737;43.334;21.936;2023-02-22T05:37:17;8.40;;;2.10;;
53835;SDS011;39737;43.334;21.936;2023-02-22T05:40:05;2.92;;;2.67;;
53835;SDS011;39737;43.334;21.936;2023-02-22T05:42:53;1.67;;;1.58;;
53835;SDS011;39737;43.334;21.936;2023-02-22T05:45:40;3.00;;;2.00;;
53835;SDS011;39737;43.334;21.936;2023-02-22T05:48:26;8.27;;;2.75;;
53835;SDS011;39737;43.334;21.936;2023-02-22T05:51:12;3.97;;;2.78;;
53835;SDS011;39737;43.334;21.936;2023-02-22T05:53:59;1.75;;;1.60;;
53835;SDS011;39737;43.334;21.936;2023-02-22T05:56:45;19.50;;;9.88;;
53835;SDS011;39737;43.334;21.936;2023-02-22T05:59:32;3.42;;;2.15;;
53835;SDS011;39737;43.334;21.936;2023-02-22T06:02:18;6.20;;;4.55;;
53835;SDS011;39737;43.334;21.936;2023-02-22T06:05:05;9.13;;;3.25;;
53835;SDS011;39737;43.334;21.936;2023-02-22T06:07:51;5.80;;;2.92;;
53835;SDS011;39737;43.334;21.936;2023-02-22T06:10:37;23.55;;;8.68;;
53835;SDS011;39737;43.334;21.936;2023-02-22T06:13:24;2.67;;;2.15;;
53835;SDS011;39737;43.334;21.936;2023-02-22T06:16:10;18.95;;;9.82;;
53835;SDS011;39737;43.334;21.936;2023-02-22T06:18:56;22.45;;;10.43;;
53835;SDS011;39737;43.334;21.936;2023-02-22T06:21:49;3.10;;;1.73;;
53835;SDS011;39737;43.334;21.936;2023-02-22T06:24:37;19.25;;;9.95;;
53835;SDS011;39737;43.334;21.936;2023-02-22T06:27:23;6.53;;;1.88;;
53835;SDS011;39737;43.334;21.936;2023-02-22T06:30:10;8.63;;;3.67;;
53835;SDS011;39737;43.334;21.936;2023-02-22T06:32:58;3.50;;;3.00;;
53835;SDS011;39737;43.334;21.936;2023-02-22T06:35:44;29.77;;;8.55;;
53835;SDS011;39737;43.334;21.936;2023-02-22T06:38:30;15.85;;;5.00;;
53835;SDS011;39737;43.334;21.936;2023-02-22T06:56:13;70.65;;;30.08;;
53835;SDS011;39737;43.334;21.936;2023-02-22T06:59:21;76.30;;;30.80;;
53835;SDS011;39737;43.334;21.936;2023-02-22T07:02:11;181.27;;;65.53;;
53835;SDS011;39737;43.334;21.936;2023-02-22T07:05:00;150.77;;;55.92;;
53835;SDS011;39737;43.334;21.936;2023-02-22T07:07:46;28.60;;;13.00;;
53835;SDS011;39737;43.334;21.936;2023-02-22T07:10:53;37.42;;;13.27;;
53835;SDS011;39737;43.334;21.936;2023-02-22T07:13:39;72.53;;;34.75;;
53835;SDS011;39737;43.334;21.936;2023-02-22T07:16:44;13.18;;;9.90;;
53835;SDS011;39737;43.334;21.936;2023-02-22T07:19:30;76.70;;;35.20;;
53835;SDS011;39737;43.334;21.936;2023-02-22T07:22:16;82.05;;;37.92;;
53835;SDS011;39737;43.334;21.936;2023-02-22T07:25:02;76.40;;;34.58;;
53835;SDS011;39737;43.334;21.936;2023-02-22T07:27:48;64.20;;;29.63;;
53835;SDS011;39737;43.334;21.936;2023-02-22T07:30:37;61.42;;;30.02;;
53835;SDS011;39737;43.334;21.936;2023-02-22T07:33:23;65.43;;;30.25;;
53835;SDS011;39737;43.334;21.936;2023-02-22T07:36:09;90.97;;;39.50;;
53835;SDS011;39737;43.334;21.936;2023-02-22T07:38:55;48.30;;;23.15;;
53835;SDS011;39737;43.334;21.936;2023-02-22T07:41:41;35.40;;;18.85;;
53835;SDS011;39737;43.334;21.936;2023-02-22T07:44:40;102.93;;;45.92;;
53835;SDS011;39737;43.334;21.936;2023-02-22T07:47:26;60.17;;;27.50;;
53835;SDS011;39737;43.334;21.936;2023-02-22T07:50:13;56.63;;;28.73;;
53835;SDS011;39737;43.334;21.936;2023-02-22T07:53:01;71.38;;;29.50;;
53835;SDS011;39737;43.334;21.936;2023-02-22T07:55:47;46.08;;;19.25;;
53835;SDS011;39737;43.334;21.936;2023-02-22T07:58:36;33.65;;;17.25;;
53835;SDS011;39737;43.334;21.936;2023-02-22T08:01:22;32.45;;;16.17;;
53835;SDS011;39737;43.334;21.936;2023-02-22T08:04:12;22.85;;;11.70;;
53835;SDS011;39737;43.334;21.936;2023-02-22T08:06:58;27.55;;;14.20;;
53835;SDS011;39737;43.334;21.936;2023-02-22T08:09:50;30.48;;;14.35;;
53835;SDS011;39737;43.334;21.936;2023-02-22T08:12:39;27.27;;;12.60;;
53835;SDS011;39737;43.334;21.936;2023-02-22T08:15:32;32.50;;;16.00;;
53835;SDS011;39737;43.334;21.936;2023-02-22T08:18:20;33.50;;;15.38;;
53835;SDS011;39737;43.334;21.936;2023-02-22T08:21:09;25.27;;;12.60;;
53835;SDS011;39737;43.334;21.936;2023-02-22T08:23:56;84.32;;;34.50;;
53835;SDS011;39737;43.334;21.936;2023-02-22T08:26:45;36.92;;;17.25;;
53835;SDS011;39737;43.334;21.936;2023-02-22T08:29:31;27.67;;;13.18;;
53835;SDS011;39737;43.334;21.936;2023-02-22T08:32:18;39.60;;;17.73;;
53835;SDS011;39737;43.334;21.936;2023-02-22T08:35:05;49.22;;;20.45;;
53835;SDS011;39737;43.334;21.936;2023-02-22T08:37:54;98.15;;;32.15;;
53835;SDS011;39737;43.334;21.936;2023-02-22T08:40:40;34.13;;;15.63;;
53835;SDS011;39737;43.334;21.936;2023-02-22T08:43:26;48.17;;;20.88;;
53835;SDS011;39737;43.334;21.936;2023-02-22T08:46:15;41.95;;;22.13;;
53835;SDS011;39737;43.334;21.936;2023-02-22T08:49:01;55.30;;;23.02;;
53835;SDS011;39737;43.334;21.936;2023-02-22T08:51:48;77.95;;;30.27;;
53835;SDS011;39737;43.334;21.936;2023-02-22T08:54:52;37.88;;;18.50;;
53835;SDS011;39737;43.334;21.936;2023-02-22T08:57:40;50.28;;;19.67;;
53835;SDS011;39737;43.334;21.936;2023-02-22T09:00:26;25.77;;;12.23;;
53835;SDS011;39737;43.334;21.936;2023-02-22T09:03:14;33.08;;;15.07;;
53835;SDS011;39737;43.334;21.936;2023-02-22T09:06:00;28.80;;;14.25;;
53835;SDS011;39737;43.334;21.936;2023-02-22T09:08:46;21.20;;;9.05;;
53835;SDS011;39737;43.334;21.936;2023-02-22T09:11:32;14.77;;;8.57;;
53835;SDS011;39737;43.334;21.936;2023-02-22T09:14:18;68.43;;;24.73;;
53835;SDS011;39737;43.334;21.936;2023-02-22T09:17:05;56.88;;;20.58;;
53835;SDS011;39737;43.334;21.936;2023-02-22T09:19:51;33.45;;;15.30;;
53835;SDS011;39737;43.334;21.936;2023-02-22T09:22:51;44.95;;;18.17;;
53835;SDS011;39737;43.334;21.936;2023-02-22T09:25:38;63.63;;;25.23;;
53835;SDS011;39737;43.334;21.936;2023-02-22T09:28:26;30.42;;;15.20;;
53835;SDS011;39737;43.334;21.936;2023-02-22T09:31:14;51.15;;;21.02;;
53835;SDS011;39737;43.334;21.936;2023-02-22T09:34:01;50.13;;;22.65;;
53835;SDS011;39737;43.334;21.936;2023-02-22T09:36:49;46.35;;;19.63;;
53835;SDS011;39737;43.334;21.936;2023-02-22T09:39:35;57.45;;;20.48;;
53835;SDS011;39737;43.334;21.936;2023-02-22T09:42:37;68.82;;;25.55;;
53835;SDS011;39737;43.334;21.936;2023-02-22T09:45:28;28.88;;;12.40;;
53835;SDS011;39737;43.334;21.936;2023-02-22T09:48:17;32.13;;;13.73;;
53835;SDS011;39737;43.334;21.936;2023-02-22T09:51:08;27.58;;;12.48;;
53835;SDS011;39737;43.334;21.936;2023-02-22T09:54:00;33.28;;;13.50;;
53835;SDS011;39737;43.334;21.936;2023-02-22T09:56:52;26.95;;;12.65;;
53835;SDS011;39737;43.334;21.936;2023-02-22T09:59:42;20.02;;;10.85;;
53835;SDS011;39737;43.334;21.936;2023-02-22T10:02:36;25.42;;;9.60;;
53835;SDS011;39737;43.334;21.936;2023-02-22T10:05:24;22.95;;;10.48;;
53835;SDS011;39737;43.334;21.936;2023-02-22T10:08:15;18.20;;;8.43;;
53835;SDS011;39737;43.334;21.936;2023-02-22T10:11:25;19.38;;;9.35;;
53835;SDS011;39737;43.334;21.936;2023-02-22T10:14:25;23.75;;;11.30;;
53835;SDS011;39737;43.334;21.936;2023-02-22T10:17:32;38.53;;;12.50;;
53835;SDS011;39737;43.334;21.936;2023-02-22T10:20:33;30.58;;;12.25;;
53835;SDS011;39737;43.334;21.936;2023-02-22T10:26:33;18.90;;;9.25;;
53835;SDS011;39737;43.334;21.936;2023-02-22T10:29:39;19.38;;;9.05;;
53835;SDS011;39737;43.334;21.936;2023-02-22T10:32:30;20.83;;;9.88;;
53835;SDS011;39737;43.334;21.936;2023-02-22T10:35:26;21.58;;;10.32;;
53835;SDS011;39737;43.334;21.936;2023-02-22T10:43:59;23.10;;;9.20;;
53835;SDS011;39737;43.334;21.936;2023-02-22T10:46:46;23.10;;;10.75;;
53835;SDS011;39737;43.334;21.936;2023-02-22T10:49:39;21.20;;;11.38;;
53835;SDS011;39737;43.334;21.936;2023-02-22T10:52:30;19.77;;;9.88;;
53835;SDS011;39737;43.334;21.936;2023-02-22T10:55:20;25.52;;;12.82;;
53835;SDS011;39737;43.334;21.936;2023-02-22T10:58:06;27.88;;;12.13;;
53835;SDS011;39737;43.334;21.936;2023-02-22T11:00:58;32.45;;;15.95;;
53835;SDS011;39737;43.334;21.936;2023-02-22T11:03:44;25.08;;;10.23;;
53835;SDS011;39737;43.334;21.936;2023-02-22T11:06:34;28.35;;;15.27;;
53835;SDS011;39737;43.334;21.936;2023-02-22T11:09:21;30.08;;;13.93;;
53835;SDS011;39737;43.334;21.936;2023-02-22T11:12:14;80.82;;;32.42;;
53835;SDS011;39737;43.334;21.936;2023-02-22T11:15:47;20.13;;;11.40;;
53835;SDS011;39737;43.334;21.936;2023-02-22T11:18:15;21.13;;;10.85;;
53835;SDS011;39737;43.334;21.936;2023-02-22T11:21:07;20.73;;;12.45;;
53835;SDS011;39737;43.334;21.936;2023-02-22T11:24:04;20.50;;;12.07;;
53835;SDS011;39737;43.334;21.936;2023-02-22T11:26:53;20.77;;;10.48;;
53835;SDS011;39737;43.334;21.936;2023-02-22T11:29:41;20.30;;;10.82;;
53835;SDS011;39737;43.334;21.936;2023-02-22T11:32:28;21.10;;;11.02;;
53835;SDS011;39737;43.334;21.936;2023-02-22T11:35:16;26.25;;;11.93;;
53835;SDS011;39737;43.334;21.936;2023-02-22T11:41:39;81.80;;;35.20;;
53835;SDS011;39737;43.334;21.936;2023-02-22T11:44:30;13.75;;;8.00;;
53835;SDS011;39737;43.334;21.936;2023-02-22T11:47:16;19.88;;;9.13;;
53835;SDS011;39737;43.334;21.936;2023-02-22T11:50:03;12.05;;;6.20;;
53835;SDS011;39737;43.334;21.936;2023-02-22T11:53:02;13.25;;;6.50;;
53835;SDS011;39737;43.334;21.936;2023-02-22T11:56:03;15.52;;;8.23;;
53835;SDS011;39737;43.334;21.936;2023-02-22T12:01:42;9.65;;;4.57;;
53835;SDS011;39737;43.334;21.936;2023-02-22T12:07:24;7.60;;;3.67;;
53835;SDS011;39737;43.334;21.936;2023-02-22T12:10:26;4.47;;;2.55;;
53835;SDS011;39737;43.334;21.936;2023-02-22T12:21:59;9.38;;;3.35;;
53835;SDS011;39737;43.334;21.936;2023-02-22T12:24:48;4.43;;;2.50;;
53835;SDS011;39737;43.334;21.936;2023-02-22T12:30:40;7.70;;;3.22;;
53835;SDS011;39737;43.334;21.936;2023-02-22T12:33:28;9.27;;;4.05;;
53835;SDS011;39737;43.334;21.936;2023-02-22T12:36:17;4.72;;;2.80;;
53835;SDS011;39737;43.334;21.936;2023-02-22T12:39:10;5.15;;;2.88;;
53835;SDS011;39737;43.334;21.936;2023-02-22T12:42:11;24.20;;;7.75;;
53835;SDS011;39737;43.334;21.936;2023-02-22T12:45:00;11.60;;;5.30;;
53835;SDS011;39737;43.334;21.936;2023-02-22T12:47:59;6.18;;;3.17;;
53835;SDS011;39737;43.334;21.936;2023-02-22T12:50:49;5.85;;;3.25;;
53835;SDS011;39737;43.334;21.936;2023-02-22T12:53:37;4.30;;;2.55;;
53835;SDS011;39737;43.334;21.936;2023-02-22T12:56:33;6.22;;;3.78;;
53835;SDS011;39737;43.334;21.936;2023-02-22T12:59:31;7.95;;;3.58;;
53835;SDS011;39737;43.334;21.936;2023-02-22T13:02:39;6.90;;;3.65;;
53835;SDS011;39737;43.334;21.936;2023-02-22T13:05:29;9.20;;;3.60;;
53835;SDS011;39737;43.334;21.936;2023-02-22T13:08:33;9.33;;;4.63;;
53835;SDS011;39737;43.334;21.936;2023-02-22T13:20:18;5.05;;;2.67;;
53835;SDS011;39737;43.334;21.936;2023-02-22T13:23:09;4.97;;;2.95;;
53835;SDS011;39737;43.334;21.936;2023-02-22T13:26:04;8.02;;;3.63;;
53835;SDS011;39737;43.334;21.936;2023-02-22T13:31:46;8.13;;;4.13;;
53835;SDS011;39737;43.334;21.936;2023-02-22T13:37:37;5.45;;;2.95;;
53835;SDS011;39737;43.334;21.936;2023-02-22T13:46:38;5.20;;;2.58;;
53835;SDS011;39737;43.334;21.936;2023-02-22T13:52:32;9.63;;;3.90;;
53835;SDS011;39737;43.334;21.936;2023-02-22T13:55:23;11.52;;;5.00;;
53835;SDS011;39737;43.334;21.936;2023-02-22T13:58:12;10.80;;;4.32;;
53835;SDS011;39737;43.334;21.936;2023-02-22T14:00:59;7.15;;;3.20;;
53835;SDS011;39737;43.334;21.936;2023-02-22T14:03:45;3.88;;;2.55;;
53835;SDS011;39737;43.334;21.936;2023-02-22T14:06:36;5.25;;;2.65;;
53835;SDS011;39737;43.334;21.936;2023-02-22T14:15:17;4.97;;;3.10;;
53835;SDS011;39737;43.334;21.936;2023-02-22T14:18:15;9.45;;;4.82;;
53835;SDS011;39737;43.334;21.936;2023-02-22T14:21:07;9.50;;;4.13;;
53835;SDS011;39737;43.334;21.936;2023-02-22T14:23:55;8.13;;;4.63;;
53835;SDS011;39737;43.334;21.936;2023-02-22T14:26:52;12.25;;;5.28;;
53835;SDS011;39737;43.334;21.936;2023-02-22T14:29:55;7.25;;;5.07;;
53835;SDS011;39737;43.334;21.936;2023-02-22T14:32:42;5.65;;;3.08;;
53835;SDS011;39737;43.334;21.936;2023-02-22T14:35:30;6.53;;;3.47;;
53835;SDS011;39737;43.334;21.936;2023-02-22T14:38:36;6.95;;;3.10;;
53835;SDS011;39737;43.334;21.936;2023-02-22T14:41:23;6.28;;;2.72;;
53835;SDS011;39737;43.334;21.936;2023-02-22T14:44:12;7.85;;;4.00;;
53835;SDS011;39737;43.334;21.936;2023-02-22T14:46:58;5.85;;;3.20;;
53835;SDS011;39737;43.334;21.936;2023-02-22T14:49:49;15.25;;;4.20;;
53835;SDS011;39737;43.334;21.936;2023-02-22T14:52:37;8.82;;;4.53;;
53835;SDS011;39737;43.334;21.936;2023-02-22T14:55:24;25.90;;;9.98;;
53835;SDS011;39737;43.334;21.936;2023-02-22T14:58:54;6.97;;;3.95;;
53835;SDS011;39737;43.334;21.936;2023-02-22T15:01:22;18.38;;;6.50;;
53835;SDS011;39737;43.334;21.936;2023-02-22T15:07:18;26.42;;;11.07;;
53835;SDS011;39737;43.334;21.936;2023-02-22T15:10:06;19.20;;;8.48;;
53835;SDS011;39737;43.334;21.936;2023-02-22T15:13:05;12.80;;;6.05;;
53835;SDS011;39737;43.334;21.936;2023-02-22T15:15:59;11.90;;;7.18;;
53835;SDS011;39737;43.334;21.936;2023-02-22T15:18:53;15.20;;;7.47;;
53835;SDS011;39737;43.334;21.936;2023-02-22T15:21:44;11.60;;;5.75;;
53835;SDS011;39737;43.334;21.936;2023-02-22T15:24:35;17.33;;;7.10;;
53835;SDS011;39737;43.334;21.936;2023-02-22T15:27:21;14.13;;;6.18;;
53835;SDS011;39737;43.334;21.936;2023-02-22T15:30:14;11.85;;;6.25;;
53835;SDS011;39737;43.334;21.936;2023-02-22T15:33:12;11.40;;;5.93;;
53835;SDS011;39737;43.334;21.936;2023-02-22T15:35:59;11.82;;;6.45;;
53835;SDS011;39737;43.334;21.936;2023-02-22T15:38:46;23.15;;;9.60;;
53835;SDS011;39737;43.334;21.936;2023-02-22T15:41:32;24.83;;;10.90;;
53835;SDS011;39737;43.334;21.936;2023-02-22T15:44:18;30.38;;;13.43;;
53835;SDS011;39737;43.334;21.936;2023-02-22T15:47:16;34.25;;;11.10;;
53835;SDS011;39737;43.334;21.936;2023-02-22T15:53:02;22.23;;;10.27;;
53835;SDS011;39737;43.334;21.936;2023-02-22T15:55:53;16.55;;;8.02;;
53835;SDS011;39737;43.334;21.936;2023-02-22T15:58:41;24.67;;;10.23;;
53835;SDS011;39737;43.334;21.936;2023-02-22T16:01:35;22.67;;;10.43;;
53835;SDS011;39737;43.334;21.936;2023-02-22T16:04:22;13.30;;;7.15;;
53835;SDS011;39737;43.334;21.936;2023-02-22T16:07:10;15.27;;;7.68;;
53835;SDS011;39737;43.334;21.936;2023-02-22T16:10:02;25.23;;;9.45;;
53835;SDS011;39737;43.334;21.936;2023-02-22T16:13:36;38.22;;;22.48;;
53835;SDS011;39737;43.334;21.936;2023-02-22T16:19:23;15.70;;;10.25;;
53835;SDS011;39737;43.334;21.936;2023-02-22T16:22:31;11.88;;;5.85;;
53835;SDS011;39737;43.334;21.936;2023-02-22T16:28:27;21.85;;;12.20;;
53835;SDS011;39737;43.334;21.936;2023-02-22T16:31:28;8.50;;;5.65;;
53835;SDS011;39737;43.334;21.936;2023-02-22T16:34:17;37.70;;;18.85;;
53835;SDS011;39737;43.334;21.936;2023-02-22T16:37:03;62.65;;;34.67;;
53835;SDS011;39737;43.334;21.936;2023-02-22T16:39:49;21.38;;;11.50;;
53835;SDS011;39737;43.334;21.936;2023-02-22T16:42:39;18.50;;;8.52;;
53835;SDS011;39737;43.334;21.936;2023-02-22T16:45:25;18.63;;;7.22;;
53835;SDS011;39737;43.334;21.936;2023-02-22T16:48:17;20.38;;;9.65;;
53835;SDS011;39737;43.334;21.936;2023-02-22T16:53:49;33.67;;;11.75;;
53835;SDS011;39737;43.334;21.936;2023-02-22T16:56:38;27.10;;;12.43;;
53835;SDS011;39737;43.334;21.936;2023-02-22T16:59:25;37.60;;;17.05;;
53835;SDS011;39737;43.334;21.936;2023-02-22T17:02:14;17.70;;;7.05;;
53835;SDS011;39737;43.334;21.936;2023-02-22T17:05:01;12.50;;;5.53;;
53835;SDS011;39737;43.334;21.936;2023-02-22T17:07:47;14.27;;;7.57;;
53835;SDS011;39737;43.334;21.936;2023-02-22T17:10:34;12.48;;;7.03;;
53835;SDS011;39737;43.334;21.936;2023-02-22T17:13:21;41.25;;;22.73;;
53835;SDS011;39737;43.334;21.936;2023-02-22T17:16:14;69.20;;;29.10;;
53835;SDS011;39737;43.334;21.936;2023-02-22T17:19:01;81.93;;;44.20;;
53835;SDS011;39737;43.334;21.936;2023-02-22T17:21:50;71.35;;;33.25;;
53835;SDS011;39737;43.334;21.936;2023-02-22T17:24:36;51.88;;;19.92;;
53835;SDS011;39737;43.334;21.936;2023-02-22T17:27:24;83.53;;;33.53;;
53835;SDS011;39737;43.334;21.936;2023-02-22T17:30:10;196.77;;;83.13;;
53835;SDS011;39737;43.334;21.936;2023-02-22T17:32:59;281.48;;;109.82;;
53835;SDS011;39737;43.334;21.936;2023-02-22T17:35:51;213.85;;;94.60;;
53835;SDS011;39737;43.334;21.936;2023-02-22T17:38:37;265.70;;;120.10;;
53835;SDS011;39737;43.334;21.936;2023-02-22T17:41:26;193.95;;;76.97;;
53835;SDS011;39737;43.334;21.936;2023-02-22T17:44:13;131.77;;;58.42;;
53835;SDS011;39737;43.334;21.936;2023-02-22T17:47:00;73.03;;;31.60;;
53835;SDS011;39737;43.334;21.936;2023-02-22T17:49:46;78.07;;;34.85;;
53835;SDS011;39737;43.334;21.936;2023-02-22T17:52:33;85.65;;;37.55;;
53835;SDS011;39737;43.334;21.936;2023-02-22T17:55:20;71.07;;;32.55;;
53835;SDS011;39737;43.334;21.936;2023-02-22T17:58:07;76.70;;;33.38;;
53835;SDS011;39737;43.334;21.936;2023-02-22T18:00:59;154.50;;;67.70;;
53835;SDS011;39737;43.334;21.936;2023-02-22T18:03:46;211.55;;;96.70;;
53835;SDS011;39737;43.334;21.936;2023-02-22T18:06:32;159.52;;;60.50;;
53835;SDS011;39737;43.334;21.936;2023-02-22T18:09:19;91.82;;;37.70;;
53835;SDS011;39737;43.334;21.936;2023-02-22T18:12:05;106.35;;;44.63;;
53835;SDS011;39737;43.334;21.936;2023-02-22T18:14:52;96.25;;;38.78;;
53835;SDS011;39737;43.334;21.936;2023-02-22T18:17:38;87.53;;;38.80;;
53835;SDS011;39737;43.334;21.936;2023-02-22T18:20:24;121.18;;;48.53;;
53835;SDS011;39737;43.334;21.936;2023-02-22T18:23:23;229.75;;;104.18;;
53835;SDS011;39737;43.334;21.936;2023-02-22T18:26:13;145.30;;;59.45;;
53835;SDS011;39737;43.334;21.936;2023-02-22T18:29:00;110.28;;;49.85;;
53835;SDS011;39737;43.334;21.936;2023-02-22T18:31:46;109.82;;;44.65;;
53835;SDS011;39737;43.334;21.936;2023-02-22T18:34:32;63.10;;;30.13;;
53835;SDS011;39737;43.334;21.936;2023-02-22T18:37:18;58.13;;;25.73;;
53835;SDS011;39737;43.334;21.936;2023-02-22T18:40:07;70.90;;;29.58;;
53835;SDS011;39737;43.334;21.936;2023-02-22T18:42:55;48.70;;;24.73;;
53835;SDS011;39737;43.334;21.936;2023-02-22T18:45:41;66.18;;;28.88;;
53835;SDS011;39737;43.334;21.936;2023-02-22T18:48:28;83.43;;;33.15;;
53835;SDS011;39737;43.334;21.936;2023-02-22T18:51:14;104.38;;;46.17;;
53835;SDS011;39737;43.334;21.936;2023-02-22T18:54:02;103.97;;;43.28;;
53835;SDS011;39737;43.334;21.936;2023-02-22T18:56:48;115.95;;;48.22;;
53835;SDS011;39737;43.334;21.936;2023-02-22T18:59:34;98.13;;;40.92;;
53835;SDS011;39737;43.334;21.936;2023-02-22T19:02:25;86.95;;;37.00;;
53835;SDS011;39737;43.334;21.936;2023-02-22T19:05:11;95.28;;;40.80;;
53835;SDS011;39737;43.334;21.936;2023-02-22T19:07:57;72.93;;;32.97;;
53835;SDS011;39737;43.334;21.936;2023-02-22T19:10:43;95.57;;;40.58;;
53835;SDS011;39737;43.334;21.936;2023-02-22T19:13:30;69.47;;;31.20;;
53835;SDS011;39737;43.334;21.936;2023-02-22T19:16:17;58.58;;;28.55;;
53835;SDS011;39737;43.334;21.936;2023-02-22T19:19:04;60.90;;;29.30;;
53835;SDS011;39737;43.334;21.936;2023-02-22T19:21:50;67.00;;;29.25;;
53835;SDS011;39737;43.334;21.936;2023-02-22T19:24:37;55.30;;;25.58;;
53835;SDS011;39737;43.334;21.936;2023-02-22T19:27:24;47.78;;;23.45;;
53835;SDS011;39737;43.334;21.936;2023-02-22T19:30:12;44.95;;;17.58;;
53835;SDS011;39737;43.334;21.936;2023-02-22T19:32:58;60.70;;;30.02;;
53835;SDS011;39737;43.334;21.936;2023-02-22T19:35:47;12.48;;;8.63;;
53835;SDS011;39737;43.334;21.936;2023-02-22T19:38:33;44.97;;;22.30;;
53835;SDS011;39737;43.334;21.936;2023-02-22T19:41:21;52.97;;;25.63;;
53835;SDS011;39737;43.334;21.936;2023-02-22T19:44:07;75.18;;;34.13;;
53835;SDS011;39737;43.334;21.936;2023-02-22T19:46:54;6.32;;;4.53;;
53835;SDS011;39737;43.334;21.936;2023-02-22T19:49:40;53.65;;;22.67;;
53835;SDS011;39737;43.334;21.936;2023-02-22T19:52:27;38.35;;;18.17;;
53835;SDS011;39737;43.334;21.936;2023-02-22T19:55:34;4.05;;;2.97;;
53835;SDS011;39737;43.334;21.936;2023-02-22T19:58:20;24.50;;;12.55;;
53835;SDS011;39737;43.334;21.936;2023-02-22T20:01:10;38.97;;;18.75;;